sensor_id;sensor_type;location;lat;lon;timestamp;P1;durP1;ratioP1;P2;durP2;ratioP2
68310;SDS011;55157;51.036;17.058;2023-07-20T00:00:43;6.32;;;2.17;;
68310;SDS011;55157;51.036;17.058;2023-07-20T00:03:13;3.33;;;1.73;;
68310;SDS011;55157;51.036;17.058;2023-07-20T00:05:38;3.67;;;1.83;;
68310;SDS011;55157;51.036;17.058;2023-07-20T00:08:04;2.90;;;1.90;;
68310;SDS011;55157;51.036;17.058;2023-07-20T00:10:29;5.38;;;2.20;;
68310;SDS011;55157;51.036;17.058;2023-07-20T00:12:54;3.33;;;1.98;;
68310;SDS011;55157;51.036;17.058;2023-07-20T00:15:20;4.63;;;2.03;;
68310;SDS011;55157;51.036;17.058;2023-07-20T00:17:45;3.97;;;2.35;;
68310;SDS011;55157;51.036;17.058;2023-07-20T00:20:12;3.60;;;2.00;;
68310;SDS011;55157;51.036;17.058;2023-07-20T00:22:37;7.97;;;2.10;;
68310;SDS011;55157;51.036;17.058;2023-07-20T00:25:03;6.45;;;2.22;;
68310;SDS011;55157;51.036;17.058;2023-07-20T00:27:28;6.13;;;2.67;;
68310;SDS011;55157;51.036;17.058;2023-07-20T00:29:53;6.28;;;3.42;;
68310;SDS011;55157;51.036;17.058;2023-07-20T00:32:18;8.80;;;2.47;;
68310;SDS011;55157;51.036;17.058;2023-07-20T00:34:44;5.55;;;2.70;;
68310;SDS011;55157;51.036;17.058;2023-07-20T00:37:10;12.68;;;3.58;;
68310;SDS011;55157;51.036;17.058;2023-07-20T00:39:36;6.05;;;2.40;;
68310;SDS011;55157;51.036;17.058;2023-07-20T00:42:01;6.72;;;2.35;;
68310;SDS011;55157;51.036;17.058;2023-07-20T00:44:26;5.80;;;2.50;;
68310;SDS011;55157;51.036;17.058;2023-07-20T00:46:51;5.88;;;2.15;;
68310;SDS011;55157;51.036;17.058;2023-07-20T00:49:17;6.22;;;2.55;;
68310;SDS011;55157;51.036;17.058;2023-07-20T00:51:42;3.47;;;2.70;;
68310;SDS011;55157;51.036;17.058;2023-07-20T00:54:09;3.80;;;2.20;;
68310;SDS011;55157;51.036;17.058;2023-07-20T00:56:34;4.00;;;2.08;;
68310;SDS011;55157;51.036;17.058;2023-07-20T00:59:00;5.78;;;2.25;;
68310;SDS011;55157;51.036;17.058;2023-07-20T01:01:25;3.83;;;2.35;;
68310;SDS011;55157;51.036;17.058;2023-07-20T01:03:51;5.20;;;2.35;;
68310;SDS011;55157;51.036;17.058;2023-07-20T01:06:20;6.18;;;2.67;;
68310;SDS011;55157;51.036;17.058;2023-07-20T01:08:51;5.65;;;2.10;;
68310;SDS011;55157;51.036;17.058;2023-07-20T01:11:22;2.90;;;2.20;;
68310;SDS011;55157;51.036;17.058;2023-07-20T01:13:48;3.80;;;2.22;;
68310;SDS011;55157;51.036;17.058;2023-07-20T01:16:13;7.60;;;2.47;;
68310;SDS011;55157;51.036;17.058;2023-07-20T01:18:38;4.43;;;1.80;;
68310;SDS011;55157;51.036;17.058;2023-07-20T01:21:05;7.15;;;2.50;;
68310;SDS011;55157;51.036;17.058;2023-07-20T01:23:35;8.32;;;3.03;;
68310;SDS011;55157;51.036;17.058;2023-07-20T01:26:20;5.60;;;2.72;;
68310;SDS011;55157;51.036;17.058;2023-07-20T01:28:57;6.80;;;2.35;;
68310;SDS011;55157;51.036;17.058;2023-07-20T01:31:30;3.75;;;2.10;;
68310;SDS011;55157;51.036;17.058;2023-07-20T01:33:57;4.05;;;2.15;;
68310;SDS011;55157;51.036;17.058;2023-07-20T01:36:23;7.25;;;3.83;;
68310;SDS011;55157;51.036;17.058;2023-07-20T01:38:48;7.03;;;2.80;;
68310;SDS011;55157;51.036;17.058;2023-07-20T01:41:14;3.78;;;1.92;;
68310;SDS011;55157;51.036;17.058;2023-07-20T01:43:39;2.75;;;1.90;;
68310;SDS011;55157;51.036;17.058;2023-07-20T01:46:05;8.10;;;2.30;;
68310;SDS011;55157;51.036;17.058;2023-07-20T01:48:32;4.53;;;2.33;;
68310;SDS011;55157;51.036;17.058;2023-07-20T01:50:57;4.63;;;2.05;;
68310;SDS011;55157;51.036;17.058;2023-07-20T01:53:22;5.97;;;2.28;;
68310;SDS011;55157;51.036;17.058;2023-07-20T01:55:47;3.95;;;2.50;;
68310;SDS011;55157;51.036;17.058;2023-07-20T01:58:13;4.22;;;2.55;;
68310;SDS011;55157;51.036;17.058;2023-07-20T02:00:38;3.85;;;1.77;;
68310;SDS011;55157;51.036;17.058;2023-07-20T02:03:03;3.38;;;2.10;;
68310;SDS011;55157;51.036;17.058;2023-07-20T02:05:30;6.97;;;2.20;;
68310;SDS011;55157;51.036;17.058;2023-07-20T02:07:55;6.10;;;2.72;;
68310;SDS011;55157;51.036;17.058;2023-07-20T02:10:21;4.80;;;1.60;;
68310;SDS011;55157;51.036;17.058;2023-07-20T02:12:46;3.95;;;2.55;;
68310;SDS011;55157;51.036;17.058;2023-07-20T02:15:11;7.32;;;2.83;;
68310;SDS011;55157;51.036;17.058;2023-07-20T02:17:36;7.75;;;2.28;;
68310;SDS011;55157;51.036;17.058;2023-07-20T02:20:02;5.03;;;2.90;;
68310;SDS011;55157;51.036;17.058;2023-07-20T02:22:29;5.30;;;2.30;;
68310;SDS011;55157;51.036;17.058;2023-07-20T02:24:54;4.35;;;2.40;;
68310;SDS011;55157;51.036;17.058;2023-07-20T02:27:19;8.90;;;2.65;;
68310;SDS011;55157;51.036;17.058;2023-07-20T02:29:44;4.55;;;2.22;;
68310;SDS011;55157;51.036;17.058;2023-07-20T02:32:10;4.70;;;2.85;;
68310;SDS011;55157;51.036;17.058;2023-07-20T02:34:36;4.20;;;1.92;;
68310;SDS011;55157;51.036;17.058;2023-07-20T02:37:01;9.57;;;2.22;;
68310;SDS011;55157;51.036;17.058;2023-07-20T02:39:28;4.97;;;3.05;;
68310;SDS011;55157;51.036;17.058;2023-07-20T02:41:53;4.65;;;2.38;;
68310;SDS011;55157;51.036;17.058;2023-07-20T02:44:18;4.40;;;2.60;;
68310;SDS011;55157;51.036;17.058;2023-07-20T02:46:44;7.85;;;3.10;;
68310;SDS011;55157;51.036;17.058;2023-07-20T02:49:09;6.10;;;2.63;;
68310;SDS011;55157;51.036;17.058;2023-07-20T02:51:34;3.58;;;2.10;;
68310;SDS011;55157;51.036;17.058;2023-07-20T02:53:59;5.85;;;2.65;;
68310;SDS011;55157;51.036;17.058;2023-07-20T02:56:26;4.25;;;2.53;;
68310;SDS011;55157;51.036;17.058;2023-07-20T02:58:51;6.43;;;2.33;;
68310;SDS011;55157;51.036;17.058;2023-07-20T03:01:17;5.75;;;2.38;;
68310;SDS011;55157;51.036;17.058;2023-07-20T03:03:42;19.08;;;3.58;;
68310;SDS011;55157;51.036;17.058;2023-07-20T03:06:07;7.90;;;2.42;;
68310;SDS011;55157;51.036;17.058;2023-07-20T03:08:32;5.32;;;2.20;;
68310;SDS011;55157;51.036;17.058;2023-07-20T03:10:58;3.63;;;2.40;;
68310;SDS011;55157;51.036;17.058;2023-07-20T03:13:24;4.25;;;2.30;;
68310;SDS011;55157;51.036;17.058;2023-07-20T03:15:50;6.65;;;2.20;;
68310;SDS011;55157;51.036;17.058;2023-07-20T03:18:16;4.90;;;2.30;;
68310;SDS011;55157;51.036;17.058;2023-07-20T03:20:41;6.40;;;2.20;;
68310;SDS011;55157;51.036;17.058;2023-07-20T03:23:07;6.18;;;2.13;;
68310;SDS011;55157;51.036;17.058;2023-07-20T03:25:32;5.75;;;3.20;;
68310;SDS011;55157;51.036;17.058;2023-07-20T03:27:57;4.63;;;2.70;;
68310;SDS011;55157;51.036;17.058;2023-07-20T03:30:24;7.60;;;3.17;;
68310;SDS011;55157;51.036;17.058;2023-07-20T03:32:49;3.35;;;1.92;;
68310;SDS011;55157;51.036;17.058;2023-07-20T03:35:14;12.93;;;2.42;;
68310;SDS011;55157;51.036;17.058;2023-07-20T03:37:40;4.32;;;1.80;;
68310;SDS011;55157;51.036;17.058;2023-07-20T03:40:05;5.60;;;2.20;;
68310;SDS011;55157;51.036;17.058;2023-07-20T03:42:31;4.72;;;2.28;;
68310;SDS011;55157;51.036;17.058;2023-07-20T03:44:56;2.95;;;1.83;;
68310;SDS011;55157;51.036;17.058;2023-07-20T03:47:23;2.95;;;1.63;;
68310;SDS011;55157;51.036;17.058;2023-07-20T03:49:48;5.28;;;2.13;;
68310;SDS011;55157;51.036;17.058;2023-07-20T03:52:13;7.18;;;2.30;;
68310;SDS011;55157;51.036;17.058;2023-07-20T03:54:39;2.92;;;1.98;;
68310;SDS011;55157;51.036;17.058;2023-07-20T03:57:04;9.80;;;1.92;;
68310;SDS011;55157;51.036;17.058;2023-07-20T03:59:29;8.18;;;2.20;;
68310;SDS011;55157;51.036;17.058;2023-07-20T04:01:54;4.47;;;2.30;;
68310;SDS011;55157;51.036;17.058;2023-07-20T04:04:21;7.07;;;3.03;;
68310;SDS011;55157;51.036;17.058;2023-07-20T04:06:46;8.10;;;2.92;;
68310;SDS011;55157;51.036;17.058;2023-07-20T04:09:12;4.30;;;1.98;;
68310;SDS011;55157;51.036;17.058;2023-07-20T04:11:37;2.85;;;2.08;;
68310;SDS011;55157;51.036;17.058;2023-07-20T04:14:02;6.43;;;2.20;;
68310;SDS011;55157;51.036;17.058;2023-07-20T04:16:28;8.00;;;2.65;;
68310;SDS011;55157;51.036;17.058;2023-07-20T04:18:54;5.53;;;2.30;;
68310;SDS011;55157;51.036;17.058;2023-07-20T04:21:21;12.15;;;2.85;;
68310;SDS011;55157;51.036;17.058;2023-07-20T04:23:46;5.03;;;2.67;;
68310;SDS011;55157;51.036;17.058;2023-07-20T04:26:12;7.60;;;2.75;;
68310;SDS011;55157;51.036;17.058;2023-07-20T04:28:37;5.45;;;2.85;;
68310;SDS011;55157;51.036;17.058;2023-07-20T04:31:11;6.63;;;3.28;;
68310;SDS011;55157;51.036;17.058;2023-07-20T04:33:37;6.70;;;2.85;;
68310;SDS011;55157;51.036;17.058;2023-07-20T04:36:02;11.80;;;3.40;;
68310;SDS011;55157;51.036;17.058;2023-07-20T04:38:29;8.20;;;3.90;;
68310;SDS011;55157;51.036;17.058;2023-07-20T04:40:54;4.60;;;3.08;;
68310;SDS011;55157;51.036;17.058;2023-07-20T04:43:20;5.65;;;3.63;;
68310;SDS011;55157;51.036;17.058;2023-07-20T04:45:45;4.90;;;3.28;;
68310;SDS011;55157;51.036;17.058;2023-07-20T04:48:11;9.95;;;3.58;;
68310;SDS011;55157;51.036;17.058;2023-07-20T04:50:36;8.38;;;3.15;;
68310;SDS011;55157;51.036;17.058;2023-07-20T04:53:02;14.32;;;4.30;;
68310;SDS011;55157;51.036;17.058;2023-07-20T04:55:29;5.15;;;3.03;;
68310;SDS011;55157;51.036;17.058;2023-07-20T04:57:54;9.07;;;3.00;;
68310;SDS011;55157;51.036;17.058;2023-07-20T05:00:19;7.45;;;2.97;;
68310;SDS011;55157;51.036;17.058;2023-07-20T05:02:45;4.82;;;3.35;;
68310;SDS011;55157;51.036;17.058;2023-07-20T05:05:10;7.88;;;3.28;;
68310;SDS011;55157;51.036;17.058;2023-07-20T05:07:35;4.35;;;2.80;;
68310;SDS011;55157;51.036;17.058;2023-07-20T05:10:00;7.53;;;3.67;;
68310;SDS011;55157;51.036;17.058;2023-07-20T05:12:27;13.38;;;3.10;;
68310;SDS011;55157;51.036;17.058;2023-07-20T05:14:52;8.73;;;3.33;;
68310;SDS011;55157;51.036;17.058;2023-07-20T05:17:18;7.13;;;3.28;;
68310;SDS011;55157;51.036;17.058;2023-07-20T05:19:43;9.02;;;3.80;;
68310;SDS011;55157;51.036;17.058;2023-07-20T05:22:08;9.80;;;4.43;;
68310;SDS011;55157;51.036;17.058;2023-07-20T05:24:34;11.88;;;3.53;;
68310;SDS011;55157;51.036;17.058;2023-07-20T05:26:59;10.32;;;3.83;;
68310;SDS011;55157;51.036;17.058;2023-07-20T05:29:25;12.52;;;3.97;;
68310;SDS011;55157;51.036;17.058;2023-07-20T05:31:52;8.02;;;3.53;;
68310;SDS011;55157;51.036;17.058;2023-07-20T05:34:17;17.52;;;5.47;;
68310;SDS011;55157;51.036;17.058;2023-07-20T05:36:43;11.10;;;3.85;;
68310;SDS011;55157;51.036;17.058;2023-07-20T05:39:08;10.40;;;4.10;;
68310;SDS011;55157;51.036;17.058;2023-07-20T05:41:33;13.80;;;4.40;;
68310;SDS011;55157;51.036;17.058;2023-07-20T05:43:58;11.05;;;4.47;;
68310;SDS011;55157;51.036;17.058;2023-07-20T05:46:25;9.27;;;4.15;;
68310;SDS011;55157;51.036;17.058;2023-07-20T05:48:50;9.75;;;4.40;;
68310;SDS011;55157;51.036;17.058;2023-07-20T05:51:16;11.15;;;4.45;;
68310;SDS011;55157;51.036;17.058;2023-07-20T05:53:41;14.05;;;4.85;;
68310;SDS011;55157;51.036;17.058;2023-07-20T05:56:06;10.55;;;4.38;;
68310;SDS011;55157;51.036;17.058;2023-07-20T05:58:31;9.15;;;4.22;;
68310;SDS011;55157;51.036;17.058;2023-07-20T06:00:57;8.05;;;4.15;;
68310;SDS011;55157;51.036;17.058;2023-07-20T06:03:23;8.48;;;3.88;;
68310;SDS011;55157;51.036;17.058;2023-07-20T06:05:48;10.00;;;4.50;;
68310;SDS011;55157;51.036;17.058;2023-07-20T06:08:14;11.63;;;3.70;;
68310;SDS011;55157;51.036;17.058;2023-07-20T06:10:39;11.75;;;4.63;;
68310;SDS011;55157;51.036;17.058;2023-07-20T06:13:04;10.43;;;4.50;;
68310;SDS011;55157;51.036;17.058;2023-07-20T06:15:31;12.40;;;4.78;;
68310;SDS011;55157;51.036;17.058;2023-07-20T06:17:56;11.05;;;5.05;;
68310;SDS011;55157;51.036;17.058;2023-07-20T06:20:23;15.68;;;5.30;;
68310;SDS011;55157;51.036;17.058;2023-07-20T06:22:48;12.70;;;4.65;;
68310;SDS011;55157;51.036;17.058;2023-07-20T06:25:14;7.15;;;4.72;;
68310;SDS011;55157;51.036;17.058;2023-07-20T06:27:39;9.65;;;4.47;;
68310;SDS011;55157;51.036;17.058;2023-07-20T06:30:05;17.52;;;5.57;;
68310;SDS011;55157;51.036;17.058;2023-07-20T06:32:30;9.93;;;4.38;;
68310;SDS011;55157;51.036;17.058;2023-07-20T06:34:55;11.57;;;5.07;;
68310;SDS011;55157;51.036;17.058;2023-07-20T06:37:22;11.50;;;4.15;;
68310;SDS011;55157;51.036;17.058;2023-07-20T06:39:47;8.43;;;4.97;;
68310;SDS011;55157;51.036;17.058;2023-07-20T06:42:12;5.80;;;3.80;;
68310;SDS011;55157;51.036;17.058;2023-07-20T06:44:38;9.77;;;4.32;;
68310;SDS011;55157;51.036;17.058;2023-07-20T06:47:03;8.63;;;4.70;;
68310;SDS011;55157;51.036;17.058;2023-07-20T06:49:28;7.78;;;4.45;;
68310;SDS011;55157;51.036;17.058;2023-07-20T06:51:54;10.48;;;4.25;;
68310;SDS011;55157;51.036;17.058;2023-07-20T06:54:20;13.15;;;4.63;;
68310;SDS011;55157;51.036;17.058;2023-07-20T06:56:46;9.40;;;3.55;;
68310;SDS011;55157;51.036;17.058;2023-07-20T06:59:11;10.55;;;4.15;;
68310;SDS011;55157;51.036;17.058;2023-07-20T07:01:36;15.55;;;3.97;;
68310;SDS011;55157;51.036;17.058;2023-07-20T07:04:01;8.10;;;3.83;;
68310;SDS011;55157;51.036;17.058;2023-07-20T07:06:27;6.03;;;3.40;;
68310;SDS011;55157;51.036;17.058;2023-07-20T07:08:52;8.30;;;3.05;;
68310;SDS011;55157;51.036;17.058;2023-07-20T07:11:20;6.45;;;3.35;;
68310;SDS011;55157;51.036;17.058;2023-07-20T07:13:45;10.98;;;4.05;;
68310;SDS011;55157;51.036;17.058;2023-07-20T07:16:10;9.65;;;4.03;;
68310;SDS011;55157;51.036;17.058;2023-07-20T07:18:35;8.68;;;3.25;;
68310;SDS011;55157;51.036;17.058;2023-07-20T07:21:01;6.25;;;3.83;;
68310;SDS011;55157;51.036;17.058;2023-07-20T07:23:26;16.47;;;3.57;;
68310;SDS011;55157;51.036;17.058;2023-07-20T07:25:51;7.43;;;3.30;;
68310;SDS011;55157;51.036;17.058;2023-07-20T07:28:18;7.63;;;3.30;;
68310;SDS011;55157;51.036;17.058;2023-07-20T07:30:43;8.70;;;3.45;;
68310;SDS011;55157;51.036;17.058;2023-07-20T07:33:08;10.13;;;3.75;;
68310;SDS011;55157;51.036;17.058;2023-07-20T07:35:33;7.38;;;3.17;;
68310;SDS011;55157;51.036;17.058;2023-07-20T07:37:59;7.88;;;3.10;;
68310;SDS011;55157;51.036;17.058;2023-07-20T07:40:24;7.22;;;3.13;;
68310;SDS011;55157;51.036;17.058;2023-07-20T07:42:49;10.48;;;3.45;;
68310;SDS011;55157;51.036;17.058;2023-07-20T07:45:16;8.82;;;3.65;;
68310;SDS011;55157;51.036;17.058;2023-07-20T07:47:41;12.65;;;3.47;;
68310;SDS011;55157;51.036;17.058;2023-07-20T07:50:07;7.38;;;3.22;;
68310;SDS011;55157;51.036;17.058;2023-07-20T07:52:32;9.05;;;3.00;;
68310;SDS011;55157;51.036;17.058;2023-07-20T07:54:57;5.03;;;2.53;;
68310;SDS011;55157;51.036;17.058;2023-07-20T07:57:23;5.00;;;3.05;;
68310;SDS011;55157;51.036;17.058;2023-07-20T07:59:48;9.23;;;3.95;;
68310;SDS011;55157;51.036;17.058;2023-07-20T08:02:15;8.88;;;2.35;;
68310;SDS011;55157;51.036;17.058;2023-07-20T08:04:40;4.45;;;2.25;;
68310;SDS011;55157;51.036;17.058;2023-07-20T08:07:05;4.30;;;2.08;;
68310;SDS011;55157;51.036;17.058;2023-07-20T08:09:31;8.55;;;2.50;;
68310;SDS011;55157;51.036;17.058;2023-07-20T08:11:56;5.55;;;2.53;;
68310;SDS011;55157;51.036;17.058;2023-07-20T08:14:21;4.00;;;2.67;;
68310;SDS011;55157;51.036;17.058;2023-07-20T08:16:47;6.35;;;2.13;;
68310;SDS011;55157;51.036;17.058;2023-07-20T08:19:13;7.68;;;2.58;;
68310;SDS011;55157;51.036;17.058;2023-07-20T08:21:39;3.30;;;2.05;;
68310;SDS011;55157;51.036;17.058;2023-07-20T08:24:04;3.60;;;1.63;;
68310;SDS011;55157;51.036;17.058;2023-07-20T08:26:30;5.20;;;1.73;;
68310;SDS011;55157;51.036;17.058;2023-07-20T08:28:55;3.20;;;2.00;;
68310;SDS011;55157;51.036;17.058;2023-07-20T08:31:20;2.85;;;1.60;;
68310;SDS011;55157;51.036;17.058;2023-07-20T08:33:46;4.00;;;1.50;;
68310;SDS011;55157;51.036;17.058;2023-07-20T08:36:12;9.40;;;1.60;;
68310;SDS011;55157;51.036;17.058;2023-07-20T08:38:38;4.22;;;1.98;;
68310;SDS011;55157;51.036;17.058;2023-07-20T08:41:03;8.15;;;3.53;;
68310;SDS011;55157;51.036;17.058;2023-07-20T08:43:28;5.07;;;2.25;;
68310;SDS011;55157;51.036;17.058;2023-07-20T08:45:55;5.05;;;1.90;;
68310;SDS011;55157;51.036;17.058;2023-07-20T08:48:20;3.85;;;2.28;;
68310;SDS011;55157;51.036;17.058;2023-07-20T08:50:46;4.05;;;2.28;;
68310;SDS011;55157;51.036;17.058;2023-07-20T08:53:14;3.50;;;2.10;;
68310;SDS011;55157;51.036;17.058;2023-07-20T08:55:39;4.20;;;2.17;;
68310;SDS011;55157;51.036;17.058;2023-07-20T08:58:05;2.95;;;1.55;;
68310;SDS011;55157;51.036;17.058;2023-07-20T09:00:33;4.10;;;1.48;;
68310;SDS011;55157;51.036;17.058;2023-07-20T09:02:59;7.57;;;1.52;;
68310;SDS011;55157;51.036;17.058;2023-07-20T09:05:26;4.90;;;1.60;;
68310;SDS011;55157;51.036;17.058;2023-07-20T09:07:51;2.75;;;1.50;;
68310;SDS011;55157;51.036;17.058;2023-07-20T09:10:18;3.35;;;1.60;;
68310;SDS011;55157;51.036;17.058;2023-07-20T09:12:44;3.20;;;1.60;;
68310;SDS011;55157;51.036;17.058;2023-07-20T09:15:10;3.70;;;1.70;;
68310;SDS011;55157;51.036;17.058;2023-07-20T09:17:35;4.05;;;1.63;;
68310;SDS011;55157;51.036;17.058;2023-07-20T09:20:01;4.90;;;1.45;;
68310;SDS011;55157;51.036;17.058;2023-07-20T09:22:29;3.67;;;1.73;;
68310;SDS011;55157;51.036;17.058;2023-07-20T09:24:54;2.70;;;1.40;;
68310;SDS011;55157;51.036;17.058;2023-07-20T09:27:21;2.83;;;1.33;;
68310;SDS011;55157;51.036;17.058;2023-07-20T09:29:49;7.95;;;1.45;;
68310;SDS011;55157;51.036;17.058;2023-07-20T09:32:17;1.25;;;1.00;;
68310;SDS011;55157;51.036;17.058;2023-07-20T09:34:43;2.97;;;1.30;;
68310;SDS011;55157;51.036;17.058;2023-07-20T09:37:08;1.33;;;0.90;;
68310;SDS011;55157;51.036;17.058;2023-07-20T09:39:35;6.43;;;1.10;;
68310;SDS011;55157;51.036;17.058;2023-07-20T09:42:06;1.67;;;1.00;;
68310;SDS011;55157;51.036;17.058;2023-07-20T09:44:33;1.73;;;0.88;;
68310;SDS011;55157;51.036;17.058;2023-07-20T09:46:59;3.50;;;1.08;;
68310;SDS011;55157;51.036;17.058;2023-07-20T09:49:24;1.70;;;0.90;;
68310;SDS011;55157;51.036;17.058;2023-07-20T09:51:49;2.40;;;0.90;;
68310;SDS011;55157;51.036;17.058;2023-07-20T09:54:15;2.00;;;0.50;;
68310;SDS011;55157;51.036;17.058;2023-07-20T09:56:40;1.45;;;0.68;;
68310;SDS011;55157;51.036;17.058;2023-07-20T09:59:07;5.05;;;1.00;;
68310;SDS011;55157;51.036;17.058;2023-07-20T10:01:34;1.98;;;1.02;;
68310;SDS011;55157;51.036;17.058;2023-07-20T10:03:59;4.55;;;0.82;;
68310;SDS011;55157;51.036;17.058;2023-07-20T10:06:28;0.85;;;0.50;;
68310;SDS011;55157;51.036;17.058;2023-07-20T10:08:54;1.20;;;0.80;;
68310;SDS011;55157;51.036;17.058;2023-07-20T10:11:21;0.93;;;0.55;;
68310;SDS011;55157;51.036;17.058;2023-07-20T10:13:46;2.28;;;0.77;;
68310;SDS011;55157;51.036;17.058;2023-07-20T10:16:18;0.80;;;0.70;;
68310;SDS011;55157;51.036;17.058;2023-07-20T10:18:49;1.33;;;0.65;;
68310;SDS011;55157;51.036;17.058;2023-07-20T10:21:16;2.70;;;0.98;;
68310;SDS011;55157;51.036;17.058;2023-07-20T10:23:42;0.98;;;0.60;;
68310;SDS011;55157;51.036;17.058;2023-07-20T10:26:07;2.65;;;0.85;;
68310;SDS011;55157;51.036;17.058;2023-07-20T10:28:33;1.30;;;0.60;;
68310;SDS011;55157;51.036;17.058;2023-07-20T10:30:58;0.98;;;0.63;;
68310;SDS011;55157;51.036;17.058;2023-07-20T10:33:23;4.30;;;0.60;;
68310;SDS011;55157;51.036;17.058;2023-07-20T10:35:54;1.10;;;0.65;;
68310;SDS011;55157;51.036;17.058;2023-07-20T10:38:20;6.15;;;1.45;;
68310;SDS011;55157;51.036;17.058;2023-07-20T10:43:27;5.20;;;1.23;;
68310;SDS011;55157;51.036;17.058;2023-07-20T10:45:53;1.70;;;0.93;;
68310;SDS011;55157;51.036;17.058;2023-07-20T10:48:19;3.10;;;0.95;;
68310;SDS011;55157;51.036;17.058;2023-07-20T10:50:45;1.38;;;0.90;;
68310;SDS011;55157;51.036;17.058;2023-07-20T10:53:15;1.38;;;0.70;;
68310;SDS011;55157;51.036;17.058;2023-07-20T10:55:41;1.73;;;0.80;;
68310;SDS011;55157;51.036;17.058;2023-07-20T10:58:07;2.58;;;1.00;;
68310;SDS011;55157;51.036;17.058;2023-07-20T11:00:32;1.95;;;0.80;;
68310;SDS011;55157;51.036;17.058;2023-07-20T11:02:58;2.20;;;1.10;;
68310;SDS011;55157;51.036;17.058;2023-07-20T11:05:32;1.02;;;0.90;;
68310;SDS011;55157;51.036;17.058;2023-07-20T11:07:58;3.88;;;0.90;;
68310;SDS011;55157;51.036;17.058;2023-07-20T11:10:25;1.87;;;1.00;;
68310;SDS011;55157;51.036;17.058;2023-07-20T11:15:44;2.10;;;0.80;;
68310;SDS011;55157;51.036;17.058;2023-07-20T11:18:10;0.88;;;0.60;;
68310;SDS011;55157;51.036;17.058;2023-07-20T11:20:36;3.38;;;0.85;;
68310;SDS011;55157;51.036;17.058;2023-07-20T11:23:02;0.85;;;0.75;;
68310;SDS011;55157;51.036;17.058;2023-07-20T11:25:36;3.58;;;0.70;;
68310;SDS011;55157;51.036;17.058;2023-07-20T11:28:02;1.13;;;0.82;;
68310;SDS011;55157;51.036;17.058;2023-07-20T11:30:32;1.85;;;0.75;;
68310;SDS011;55157;51.036;17.058;2023-07-20T11:32:57;2.67;;;0.77;;
68310;SDS011;55157;51.036;17.058;2023-07-20T11:35:22;1.80;;;1.00;;
68310;SDS011;55157;51.036;17.058;2023-07-20T11:37:48;2.25;;;1.02;;
68310;SDS011;55157;51.036;17.058;2023-07-20T11:40:13;4.55;;;1.42;;
68310;SDS011;55157;51.036;17.058;2023-07-20T11:42:40;2.95;;;1.15;;
68310;SDS011;55157;51.036;17.058;2023-07-20T11:45:05;1.60;;;1.00;;
68310;SDS011;55157;51.036;17.058;2023-07-20T11:47:31;3.40;;;0.82;;
68310;SDS011;55157;51.036;17.058;2023-07-20T11:49:56;7.43;;;1.17;;
68310;SDS011;55157;51.036;17.058;2023-07-20T11:52:27;2.65;;;1.10;;
68310;SDS011;55157;51.036;17.058;2023-07-20T11:54:53;8.73;;;2.80;;
68310;SDS011;55157;51.036;17.058;2023-07-20T11:57:18;7.25;;;2.60;;
68310;SDS011;55157;51.036;17.058;2023-07-20T11:59:53;4.45;;;1.55;;
68310;SDS011;55157;51.036;17.058;2023-07-20T12:02:19;4.22;;;1.90;;
68310;SDS011;55157;51.036;17.058;2023-07-20T12:04:44;6.90;;;1.77;;
68310;SDS011;55157;51.036;17.058;2023-07-20T12:07:09;1.95;;;1.40;;
68310;SDS011;55157;51.036;17.058;2023-07-20T12:09:34;3.00;;;1.65;;
68310;SDS011;55157;51.036;17.058;2023-07-20T12:12:00;2.53;;;1.47;;
68310;SDS011;55157;51.036;17.058;2023-07-20T12:14:34;4.07;;;1.60;;
68310;SDS011;55157;51.036;17.058;2023-07-20T12:17:00;2.38;;;1.42;;
68310;SDS011;55157;51.036;17.058;2023-07-20T12:19:26;3.35;;;1.60;;
68310;SDS011;55157;51.036;17.058;2023-07-20T12:21:51;1.88;;;1.40;;
68310;SDS011;55157;51.036;17.058;2023-07-20T12:24:21;4.32;;;1.30;;
68310;SDS011;55157;51.036;17.058;2023-07-20T12:26:46;9.13;;;1.48;;
68310;SDS011;55157;51.036;17.058;2023-07-20T12:29:12;1.97;;;1.10;;
68310;SDS011;55157;51.036;17.058;2023-07-20T12:31:37;3.03;;;1.10;;
68310;SDS011;55157;51.036;17.058;2023-07-20T12:34:04;10.03;;;1.10;;
68310;SDS011;55157;51.036;17.058;2023-07-20T12:36:29;1.30;;;1.08;;
68310;SDS011;55157;51.036;17.058;2023-07-20T12:38:54;3.30;;;0.82;;
68310;SDS011;55157;51.036;17.058;2023-07-20T12:41:19;0.93;;;0.70;;
68310;SDS011;55157;51.036;17.058;2023-07-20T12:43:45;2.87;;;0.90;;
68310;SDS011;55157;51.036;17.058;2023-07-20T12:46:10;6.65;;;1.08;;
68310;SDS011;55157;51.036;17.058;2023-07-20T12:48:36;2.53;;;0.98;;
68310;SDS011;55157;51.036;17.058;2023-07-20T12:51:03;2.58;;;1.15;;
68310;SDS011;55157;51.036;17.058;2023-07-20T12:53:28;2.40;;;1.25;;
68310;SDS011;55157;51.036;17.058;2023-07-20T12:55:53;1.00;;;0.70;;
68310;SDS011;55157;51.036;17.058;2023-07-20T12:58:18;2.00;;;0.93;;
68310;SDS011;55157;51.036;17.058;2023-07-20T13:00:44;1.30;;;1.00;;
68310;SDS011;55157;51.036;17.058;2023-07-20T13:03:09;1.52;;;0.80;;
68310;SDS011;55157;51.036;17.058;2023-07-20T13:05:34;4.23;;;0.83;;
68310;SDS011;55157;51.036;17.058;2023-07-20T13:08:01;5.32;;;1.13;;
68310;SDS011;55157;51.036;17.058;2023-07-20T13:10:27;1.60;;;1.05;;
68310;SDS011;55157;51.036;17.058;2023-07-20T13:12:52;0.77;;;0.70;;
68310;SDS011;55157;51.036;17.058;2023-07-20T13:15:17;1.00;;;0.73;;
68310;SDS011;55157;51.036;17.058;2023-07-20T13:17:43;0.77;;;0.60;;
68310;SDS011;55157;51.036;17.058;2023-07-20T13:20:09;1.75;;;0.95;;
68310;SDS011;55157;51.036;17.058;2023-07-20T13:22:34;1.10;;;0.90;;
68310;SDS011;55157;51.036;17.058;2023-07-20T13:25:01;2.83;;;0.80;;
68310;SDS011;55157;51.036;17.058;2023-07-20T13:27:26;1.65;;;0.77;;
68310;SDS011;55157;51.036;17.058;2023-07-20T13:29:52;1.00;;;0.90;;
68310;SDS011;55157;51.036;17.058;2023-07-20T13:32:17;1.40;;;0.80;;
68310;SDS011;55157;51.036;17.058;2023-07-20T13:34:43;1.38;;;0.73;;
68310;SDS011;55157;51.036;17.058;2023-07-20T13:37:08;1.45;;;0.70;;
68310;SDS011;55157;51.036;17.058;2023-07-20T13:39:33;2.95;;;0.80;;
68310;SDS011;55157;51.036;17.058;2023-07-20T13:42:00;1.25;;;0.75;;
68310;SDS011;55157;51.036;17.058;2023-07-20T13:44:25;2.33;;;0.68;;
68310;SDS011;55157;51.036;17.058;2023-07-20T13:46:51;2.00;;;0.60;;
68310;SDS011;55157;51.036;17.058;2023-07-20T13:49:16;1.13;;;0.70;;
68310;SDS011;55157;51.036;17.058;2023-07-20T13:51:41;1.95;;;0.85;;
68310;SDS011;55157;51.036;17.058;2023-07-20T13:54:07;1.13;;;0.75;;
68310;SDS011;55157;51.036;17.058;2023-07-20T13:56:32;1.25;;;0.77;;
68310;SDS011;55157;51.036;17.058;2023-07-20T13:58:59;0.82;;;0.65;;
68310;SDS011;55157;51.036;17.058;2023-07-20T14:01:24;0.70;;;0.68;;
68310;SDS011;55157;51.036;17.058;2023-07-20T14:03:50;2.40;;;0.53;;
68310;SDS011;55157;51.036;17.058;2023-07-20T14:06:15;2.90;;;0.43;;
68310;SDS011;55157;51.036;17.058;2023-07-20T14:08:40;1.58;;;0.73;;
68310;SDS011;55157;51.036;17.058;2023-07-20T14:11:06;2.38;;;0.50;;
68310;SDS011;55157;51.036;17.058;2023-07-20T14:13:31;2.20;;;0.60;;
68310;SDS011;55157;51.036;17.058;2023-07-20T14:15:58;1.23;;;0.53;;
68310;SDS011;55157;51.036;17.058;2023-07-20T14:18:23;1.88;;;0.73;;
68310;SDS011;55157;51.036;17.058;2023-07-20T14:20:48;0.90;;;0.70;;
68310;SDS011;55157;51.036;17.058;2023-07-20T14:23:13;0.63;;;0.45;;
68310;SDS011;55157;51.036;17.058;2023-07-20T14:25:39;1.13;;;0.70;;
68310;SDS011;55157;51.036;17.058;2023-07-20T14:28:04;1.70;;;0.70;;
68310;SDS011;55157;51.036;17.058;2023-07-20T14:30:29;2.03;;;0.70;;